Terminal Aerodrome Forecast
Issued by NWS Amarillo, TX

Current Version | Previous Version | Text Only | Print | Product List | Glossary Off
Versions: 1 2 3 4 5 6 7 8 9 10 11 12 13 14 15 16 17 18 19 20 21 22 23

064
FTUS44 KAMA 280130 AAA
TAFDHT
TAF AMD
KDHT 280130Z 2802/2824 18015KT P6SM VCSH SCT110 BKN200
     FM280800 22017KT P6SM SCT200 WS010/24050KT
     FM281300 23011KT P6SM SKC=

USA.gov is the U.S. government's official web portal to all federal, state and local government web resources and services.